createdAt,value
2022-07-27T00:02:08.761Z,0.98
2022-07-27T00:04:37.772Z,1.30
2022-07-27T00:07:06.109Z,1.38
2022-07-27T00:09:33.786Z,1.70
2022-07-27T00:12:01.583Z,0.85
2022-07-27T00:14:29.266Z,0.90
2022-07-27T00:16:56.873Z,1.00
2022-07-27T00:19:24.671Z,0.90
2022-07-27T00:21:54.421Z,0.95
2022-07-27T00:24:22.060Z,1.10
2022-07-27T00:26:49.817Z,0.95
2022-07-27T00:29:17.511Z,1.00
2022-07-27T00:31:45.258Z,0.98
2022-07-27T00:34:12.890Z,0.90
2022-07-27T00:36:40.612Z,0.90
2022-07-27T00:39:09.907Z,1.13
2022-07-27T00:41:37.804Z,1.20
2022-07-27T00:44:06.786Z,1.10
2022-07-27T00:46:35.929Z,1.20
2022-07-27T00:49:03.610Z,1.00
2022-07-27T00:51:33.276Z,1.15
2022-07-27T00:54:00.973Z,1.38
2022-07-27T00:56:30.041Z,1.23
2022-07-27T00:58:58.240Z,1.20
2022-07-27T01:01:26.070Z,1.30
2022-07-27T01:03:53.746Z,1.02
2022-07-27T01:06:27.005Z,1.42
2022-07-27T01:09:15.823Z,1.38
2022-07-27T01:11:45.109Z,1.20
2022-07-27T01:14:14.116Z,1.35
2022-07-27T01:16:42.241Z,0.98
2022-07-27T01:19:11.458Z,1.40
2022-07-27T01:21:40.623Z,1.20
2022-07-27T01:24:08.896Z,1.20
2022-07-27T01:26:37.141Z,1.17
2022-07-27T01:29:05.525Z,1.20
2022-07-27T01:31:33.267Z,1.48
2022-07-27T01:34:01.598Z,1.25
2022-07-27T01:36:29.261Z,1.10
2022-07-27T01:38:58.302Z,1.00
2022-07-27T01:41:26.535Z,1.13
2022-07-27T01:43:54.227Z,1.30
2022-07-27T01:46:21.932Z,1.75
2022-07-27T01:48:49.703Z,1.30
2022-07-27T01:51:17.386Z,1.15
2022-07-27T01:53:45.050Z,1.10
2022-07-27T01:56:14.610Z,1.02
2022-07-27T01:58:43.568Z,1.15
2022-07-27T02:01:11.682Z,1.20
2022-07-27T02:03:39.841Z,1.25
2022-07-27T02:06:07.590Z,1.55
2022-07-27T02:08:37.010Z,1.60
2022-07-27T02:11:22.166Z,1.75
2022-07-27T02:13:51.205Z,1.13
2022-07-27T02:16:19.797Z,1.25
2022-07-27T02:18:48.738Z,1.30
2022-07-27T02:21:16.827Z,1.60
2022-07-27T02:23:46.780Z,1.23
2022-07-27T02:26:14.485Z,1.25
2022-07-27T02:28:42.334Z,1.42
2022-07-27T02:31:11.371Z,1.33
2022-07-27T02:33:39.038Z,1.42
2022-07-27T02:36:06.816Z,0.95
2022-07-27T02:38:34.503Z,1.65
2022-07-27T02:41:02.130Z,1.42
2022-07-27T02:43:31.801Z,1.20
2022-07-27T02:45:59.585Z,1.33
2022-07-27T02:48:28.626Z,1.23
2022-07-27T02:51:01.216Z,1.10
2022-07-27T02:53:29.261Z,2.07
2022-07-27T02:55:57.417Z,3.83
2022-07-27T02:58:25.361Z,2.70
2022-07-27T03:00:58.179Z,1.90
2022-07-27T03:03:35.961Z,2.55
2022-07-27T03:06:06.598Z,2.00
2022-07-27T03:08:34.342Z,2.30
2022-07-27T03:11:02.176Z,2.83
2022-07-27T03:13:29.937Z,2.00
2022-07-27T03:15:58.263Z,1.58
2022-07-27T03:18:26.209Z,1.77
2022-07-27T03:20:54.070Z,1.25
2022-07-27T03:23:24.215Z,1.55
2022-07-27T03:25:51.914Z,2.20
2022-07-27T03:28:19.529Z,1.70
2022-07-27T03:30:47.445Z,1.45
2022-07-27T03:33:15.150Z,1.60
2022-07-27T03:35:42.778Z,1.50
2022-07-27T03:38:11.478Z,1.60
2022-07-27T03:40:40.794Z,1.60
2022-07-27T03:43:08.660Z,1.40
2022-07-27T03:45:36.647Z,2.83
2022-07-27T03:48:04.441Z,8.25
2022-07-27T03:50:32.106Z,2.00
2022-07-27T03:52:59.740Z,1.73
2022-07-27T03:55:27.580Z,1.60
2022-07-27T03:57:56.596Z,1.95
2022-07-27T04:00:24.586Z,2.03
2022-07-27T04:02:52.774Z,2.00
2022-07-27T04:05:21.676Z,1.90
2022-07-27T04:07:54.692Z,1.70
2022-07-27T04:12:50.545Z,1.70
2022-07-27T04:15:21.320Z,2.05
2022-07-27T04:17:56.035Z,1.67
2022-07-27T04:20:25.258Z,1.65
2022-07-27T04:22:52.904Z,1.80
2022-07-27T04:25:20.568Z,1.88
2022-07-27T04:27:48.340Z,2.00
2022-07-27T04:30:16.012Z,1.65
2022-07-27T04:32:44.927Z,2.10
2022-07-27T04:35:12.988Z,1.92
2022-07-27T04:37:40.675Z,2.20
2022-07-27T04:40:25.680Z,2.08
2022-07-27T04:42:53.257Z,2.25
2022-07-27T04:45:21.137Z,2.58
2022-07-27T04:47:50.069Z,3.05
2022-07-27T04:50:17.744Z,2.05
2022-07-27T04:52:45.658Z,2.05
2022-07-27T04:55:13.385Z,2.13
2022-07-27T04:57:41.869Z,2.15
2022-07-27T05:00:11.301Z,2.08
2022-07-27T05:02:40.417Z,2.05
2022-07-27T05:05:10.191Z,2.00
2022-07-27T05:07:37.769Z,1.90
2022-07-27T05:10:06.261Z,1.90
2022-07-27T05:12:33.856Z,1.90
2022-07-27T05:15:01.547Z,1.90
2022-07-27T05:17:29.154Z,1.85
2022-07-27T05:19:56.770Z,1.60
2022-07-27T05:22:25.711Z,2.08
2022-07-27T05:24:53.331Z,1.80
2022-07-27T05:27:20.953Z,1.83
2022-07-27T05:29:49.544Z,1.88
2022-07-27T05:32:17.288Z,1.90
2022-07-27T05:34:45.994Z,1.70
2022-07-27T05:37:13.941Z,1.67
2022-07-27T05:39:42.901Z,1.67
2022-07-27T05:42:10.712Z,2.00
2022-07-27T05:44:38.340Z,1.73
2022-07-27T05:47:06.564Z,1.60
2022-07-27T05:49:34.428Z,2.17
2022-07-27T05:52:02.166Z,2.63
2022-07-27T05:54:29.769Z,2.75
2022-07-27T05:56:59.840Z,2.28
2022-07-27T05:59:28.062Z,2.33
2022-07-27T06:01:55.646Z,2.92
2022-07-27T06:04:23.256Z,2.20
2022-07-27T06:07:08.424Z,2.33
2022-07-27T06:09:36.075Z,1.70
2022-07-27T06:12:05.183Z,1.75
2022-07-27T06:14:32.839Z,2.10
2022-07-27T06:17:00.575Z,2.22
2022-07-27T06:19:36.019Z,2.55
2022-07-27T06:22:04.374Z,2.00
2022-07-27T06:24:32.020Z,2.10
2022-07-27T06:26:59.619Z,2.20
2022-07-27T06:29:28.584Z,1.90
2022-07-27T06:31:56.276Z,2.50
2022-07-27T06:34:23.928Z,1.90
2022-07-27T06:36:52.959Z,1.80
2022-07-27T06:39:20.933Z,1.65
2022-07-27T06:41:48.914Z,1.75
2022-07-27T06:44:16.562Z,1.67
2022-07-27T06:46:45.610Z,1.90
2022-07-27T06:49:13.693Z,1.48
2022-07-27T06:51:41.940Z,1.58
2022-07-27T06:54:09.575Z,1.48
2022-07-27T06:56:38.117Z,1.35
2022-07-27T06:59:05.913Z,1.60
2022-07-27T07:01:33.666Z,1.80
2022-07-27T07:04:02.725Z,1.40
2022-07-27T07:06:30.411Z,1.42
2022-07-27T07:08:57.980Z,3.00
2022-07-27T07:11:25.629Z,1.95
2022-07-27T07:13:53.286Z,2.58
2022-07-27T07:16:20.957Z,2.00
2022-07-27T07:18:52.206Z,1.67
2022-07-27T07:21:21.946Z,1.40
2022-07-27T07:23:50.144Z,1.83
2022-07-27T07:26:17.762Z,2.30
2022-07-27T07:28:45.419Z,1.75
2022-07-27T07:31:13.079Z,1.58
2022-07-27T07:33:40.777Z,1.23
2022-07-27T07:36:13.369Z,1.10
2022-07-27T07:38:44.014Z,1.48
2022-07-27T07:41:11.744Z,1.00
2022-07-27T07:43:39.778Z,1.35
2022-07-27T07:46:08.534Z,1.23
2022-07-27T07:48:36.424Z,1.30
2022-07-27T07:51:04.193Z,1.33
2022-07-27T07:53:31.811Z,1.00
2022-07-27T07:56:00.837Z,1.25
2022-07-27T07:58:28.387Z,1.17
2022-07-27T08:00:56.178Z,1.00
2022-07-27T08:03:23.876Z,1.30
2022-07-27T08:05:51.564Z,1.30
2022-07-27T08:08:19.165Z,0.85
2022-07-27T08:10:47.900Z,0.77
2022-07-27T08:13:21.937Z,0.90
2022-07-27T08:15:50.559Z,1.10
2022-07-27T08:18:18.921Z,0.90
2022-07-27T08:20:46.514Z,0.80
2022-07-27T08:23:14.177Z,0.75
2022-07-27T08:25:42.332Z,1.88
2022-07-27T08:28:10.172Z,0.90
2022-07-27T08:30:39.618Z,0.90
2022-07-27T08:33:07.322Z,0.80
2022-07-27T08:35:35.952Z,1.00
2022-07-27T08:38:05.990Z,0.80
2022-07-27T08:40:44.238Z,0.80
2022-07-27T08:43:18.888Z,1.00
2022-07-27T08:45:55.354Z,0.70
2022-07-27T08:48:24.853Z,0.68
2022-07-27T08:50:53.005Z,0.73
2022-07-27T08:53:22.247Z,0.70
2022-07-27T08:55:50.113Z,0.90
2022-07-27T08:58:18.381Z,2.38
2022-07-27T09:00:48.025Z,1.10
2022-07-27T09:03:20.517Z,2.47
2022-07-27T09:05:51.883Z,0.90
2022-07-27T09:08:23.966Z,1.40
2022-07-27T09:10:52.024Z,0.80
2022-07-27T09:13:21.990Z,0.90
2022-07-27T09:18:40.920Z,0.70
2022-07-27T09:21:11.187Z,0.80
2022-07-27T09:23:39.345Z,0.80
2022-07-27T09:26:29.329Z,0.70
2022-07-27T09:29:00.781Z,1.02
2022-07-27T09:31:28.612Z,0.77
2022-07-27T09:33:59.133Z,0.60
2022-07-27T09:36:28.778Z,0.70
2022-07-27T09:39:11.139Z,0.60
2022-07-27T09:41:45.866Z,0.90
2022-07-27T09:47:01.985Z,0.55
2022-07-27T09:49:33.212Z,0.80
2022-07-27T09:52:03.119Z,0.95
2022-07-27T09:54:44.213Z,0.68
2022-07-27T09:57:12.114Z,0.82
2022-07-27T09:59:39.885Z,0.65
2022-07-27T10:02:08.191Z,0.65
2022-07-27T10:04:37.205Z,0.80
2022-07-27T10:07:09.346Z,0.60
2022-07-27T10:09:40.385Z,1.00
2022-07-27T10:12:08.956Z,0.85
2022-07-27T10:14:36.526Z,0.73
2022-07-27T10:17:04.842Z,0.85
2022-07-27T10:19:41.810Z,0.63
2022-07-27T10:22:09.400Z,0.65
2022-07-27T10:24:37.431Z,0.68
2022-07-27T10:27:20.497Z,0.90
2022-07-27T10:29:48.923Z,0.85
2022-07-27T10:32:24.680Z,0.90
2022-07-27T10:34:54.088Z,0.77
2022-07-27T10:37:26.445Z,0.60
2022-07-27T10:40:15.974Z,0.70
2022-07-27T10:42:44.180Z,0.63
2022-07-27T10:45:13.742Z,0.55
2022-07-27T10:47:44.788Z,0.60
2022-07-27T10:50:30.704Z,0.63
2022-07-27T10:53:01.322Z,0.80
2022-07-27T10:55:58.768Z,0.80
2022-07-27T10:58:50.000Z,1.63
2022-07-27T11:01:19.624Z,1.17
2022-07-27T11:03:53.220Z,0.60
2022-07-27T11:06:37.547Z,0.70
2022-07-27T11:10:00.275Z,0.70
2022-07-27T11:12:01.293Z,0.60
2022-07-27T11:14:31.646Z,0.73
2022-07-27T11:17:33.465Z,1.10
2022-07-27T11:19:53.408Z,0.60
2022-07-27T11:22:53.597Z,0.68
2022-07-27T11:25:19.421Z,0.65
2022-07-27T11:27:48.517Z,1.45
2022-07-27T11:30:23.378Z,0.73
2022-07-27T11:32:51.182Z,0.68
2022-07-27T11:35:20.397Z,0.95
2022-07-27T11:38:01.338Z,0.82
2022-07-27T11:43:33.702Z,0.60
2022-07-27T11:46:13.268Z,0.80
2022-07-27T11:49:05.455Z,0.75
2022-07-27T11:51:34.426Z,0.90
2022-07-27T11:54:05.960Z,0.55
2022-07-27T11:56:35.598Z,0.60
2022-07-27T11:59:06.740Z,0.63
2022-07-27T12:01:36.408Z,0.60
2022-07-27T12:04:16.066Z,0.70
2022-07-27T12:06:46.296Z,0.70
2022-07-27T12:09:17.768Z,0.70
2022-07-27T12:11:51.051Z,0.70
2022-07-27T12:16:47.203Z,1.10
2022-07-27T12:19:23.815Z,1.13
2022-07-27T12:21:55.364Z,0.93
2022-07-27T12:24:34.902Z,0.90
2022-07-27T12:27:06.748Z,1.20
2022-07-27T12:29:54.628Z,0.90
2022-07-27T12:32:22.875Z,1.10
2022-07-27T12:34:50.569Z,2.75
2022-07-27T12:37:18.335Z,1.35
2022-07-27T12:39:48.600Z,0.98
2022-07-27T12:42:16.590Z,0.70
2022-07-27T12:44:46.412Z,0.80
2022-07-27T12:47:31.493Z,0.70
2022-07-27T12:50:03.432Z,0.98
2022-07-27T12:52:31.248Z,0.82
2022-07-27T12:55:00.315Z,0.90
2022-07-27T12:57:54.193Z,1.30
2022-07-27T13:00:18.085Z,0.65
2022-07-27T13:02:46.610Z,0.73
2022-07-27T13:05:15.560Z,0.90
2022-07-27T13:07:45.989Z,1.02
2022-07-27T13:10:18.237Z,1.00
2022-07-27T13:12:46.840Z,0.90
2022-07-27T13:15:15.581Z,0.80
2022-07-27T13:17:43.716Z,0.90
2022-07-27T13:20:13.141Z,0.70
2022-07-27T13:22:41.851Z,0.70
2022-07-27T13:25:16.116Z,0.80
2022-07-27T13:27:46.990Z,0.80
2022-07-27T13:30:16.819Z,0.80
2022-07-27T13:32:46.478Z,0.70
2022-07-27T13:35:14.719Z,0.63
2022-07-27T13:37:42.454Z,0.70
2022-07-27T13:40:10.738Z,0.75
2022-07-27T13:42:38.761Z,0.80
2022-07-27T13:45:10.917Z,0.60
2022-07-27T13:47:41.044Z,1.35
2022-07-27T13:50:17.404Z,1.27
2022-07-27T13:52:46.505Z,0.82
2022-07-27T13:55:15.050Z,0.98
2022-07-27T13:57:42.930Z,0.95
2022-07-27T14:00:13.497Z,0.93
2022-07-27T14:02:41.980Z,0.90
2022-07-27T14:05:13.028Z,0.85
2022-07-27T14:07:42.489Z,0.90
2022-07-27T14:10:30.174Z,1.00
2022-07-27T14:12:59.357Z,1.45
2022-07-27T14:15:28.830Z,0.85
2022-07-27T14:17:56.421Z,0.70
2022-07-27T14:20:24.103Z,0.90
2022-07-27T14:22:51.912Z,0.80
2022-07-27T14:25:19.569Z,0.90
2022-07-27T14:27:47.205Z,0.73
2022-07-27T14:30:20.265Z,1.05
2022-07-27T14:32:50.315Z,0.70
2022-07-27T14:35:18.352Z,1.00
2022-07-27T14:37:46.513Z,1.33
2022-07-27T14:40:15.335Z,0.88
2022-07-27T14:42:43.213Z,0.90
2022-07-27T14:45:12.214Z,1.10
2022-07-27T14:47:39.887Z,0.77
2022-07-27T14:50:09.936Z,1.20
2022-07-27T14:52:37.978Z,2.10
2022-07-27T14:55:06.379Z,1.27
2022-07-27T14:57:34.134Z,0.80
2022-07-27T15:00:06.749Z,1.30
2022-07-27T15:02:34.599Z,0.68
2022-07-27T15:05:02.357Z,1.25
2022-07-27T15:07:31.396Z,0.88
2022-07-27T15:09:59.092Z,1.20
2022-07-27T15:12:27.008Z,0.93
2022-07-27T15:14:55.073Z,0.85
2022-07-27T15:17:22.749Z,0.80
2022-07-27T15:19:50.654Z,1.02
2022-07-27T15:22:18.663Z,1.13
2022-07-27T15:24:47.732Z,0.95
2022-07-27T15:27:15.467Z,1.00
2022-07-27T15:29:43.185Z,1.02
2022-07-27T15:32:10.793Z,1.52
2022-07-27T15:34:39.060Z,0.80
2022-07-27T15:37:07.491Z,1.38
2022-07-27T15:39:37.386Z,1.35
2022-07-27T15:42:07.636Z,1.17
2022-07-27T15:44:36.157Z,1.10
2022-07-27T15:47:04.107Z,0.75
2022-07-27T15:49:31.863Z,1.05
2022-07-27T15:51:59.792Z,1.13
2022-07-27T15:54:31.516Z,0.77
2022-07-27T15:57:01.206Z,1.23
2022-07-27T15:59:30.313Z,0.75
2022-07-27T16:01:58.624Z,0.73
2022-07-27T16:04:27.147Z,0.85
2022-07-27T16:06:54.869Z,0.90
2022-07-27T16:09:22.546Z,1.15
2022-07-27T16:11:50.214Z,0.70
2022-07-27T16:14:17.876Z,0.90
2022-07-27T16:16:46.932Z,0.85
2022-07-27T16:19:14.998Z,0.80
2022-07-27T16:21:54.685Z,1.10
2022-07-27T16:24:24.455Z,0.85
2022-07-27T16:26:52.145Z,0.80
2022-07-27T16:29:19.886Z,0.80
2022-07-27T16:31:49.117Z,0.90
2022-07-27T16:34:16.813Z,0.65
2022-07-27T16:36:44.865Z,0.80
2022-07-27T16:39:12.703Z,0.80
2022-07-27T16:41:40.485Z,0.85
2022-07-27T16:44:08.134Z,0.88
2022-07-27T16:46:35.895Z,0.63
2022-07-27T16:49:05.326Z,0.80
2022-07-27T16:51:33.052Z,0.70
2022-07-27T16:54:00.805Z,0.70
2022-07-27T16:56:28.477Z,0.82
2022-07-27T16:58:56.152Z,0.70
2022-07-27T17:01:26.460Z,0.60
2022-07-27T17:03:56.150Z,0.70
2022-07-27T17:06:28.650Z,0.60
2022-07-27T17:08:56.469Z,0.80
2022-07-27T17:11:24.869Z,0.68
2022-07-27T17:13:59.432Z,0.73
2022-07-27T17:16:28.035Z,0.80
2022-07-27T17:18:56.235Z,0.90
2022-07-27T17:21:25.921Z,0.60
2022-07-27T17:23:53.585Z,0.80
2022-07-27T17:26:24.284Z,1.08
2022-07-27T17:28:53.222Z,0.60
2022-07-27T17:31:21.882Z,0.90
2022-07-27T17:33:50.217Z,0.70
2022-07-27T17:36:18.460Z,1.05
2022-07-27T17:38:48.240Z,0.77
2022-07-27T17:41:23.735Z,1.02
2022-07-27T17:43:52.595Z,0.70
2022-07-27T17:46:20.477Z,0.65
2022-07-27T17:48:48.507Z,0.82
2022-07-27T17:51:16.334Z,0.68
2022-07-27T17:53:44.445Z,0.50
2022-07-27T17:56:13.510Z,0.75
2022-07-27T17:58:42.753Z,0.73
2022-07-27T18:01:10.556Z,0.70
2022-07-27T18:03:47.500Z,1.40
2022-07-27T18:06:15.239Z,0.50
2022-07-27T18:08:44.778Z,0.80
2022-07-27T18:11:14.682Z,0.60
2022-07-27T18:13:42.553Z,0.95
2022-07-27T18:16:11.990Z,1.00
2022-07-27T18:18:40.699Z,1.00
2022-07-27T18:21:08.596Z,0.65
2022-07-27T18:23:36.603Z,0.88
2022-07-27T18:26:04.727Z,0.70
2022-07-27T18:28:39.501Z,0.70
2022-07-27T18:31:09.532Z,0.85
2022-07-27T18:33:37.828Z,1.00
2022-07-27T18:36:06.172Z,0.73
2022-07-27T18:38:34.071Z,0.60
2022-07-27T18:41:02.808Z,1.00
2022-07-27T18:43:30.478Z,0.80
2022-07-27T18:45:59.626Z,0.95
2022-07-27T18:48:27.430Z,0.90
2022-07-27T18:50:55.151Z,0.90
2022-07-27T18:53:22.846Z,1.05
2022-07-27T18:55:55.635Z,0.98
2022-07-27T18:58:24.026Z,1.10
2022-07-27T19:00:51.670Z,0.93
2022-07-27T19:03:21.381Z,1.05
2022-07-27T19:05:50.938Z,1.30
2022-07-27T19:08:20.705Z,0.80
2022-07-27T19:10:48.386Z,0.85
2022-07-27T19:13:16.012Z,0.90
2022-07-27T19:15:44.782Z,1.77
2022-07-27T19:18:12.437Z,1.05
2022-07-27T19:20:41.410Z,2.15
2022-07-27T19:23:09.146Z,1.52
2022-07-27T19:25:36.776Z,1.60
2022-07-27T19:28:05.296Z,1.42
2022-07-27T19:30:33.251Z,1.08
2022-07-27T19:33:01.218Z,1.38
2022-07-27T19:35:29.126Z,1.35
2022-07-27T19:37:58.356Z,1.10
2022-07-27T19:43:14.933Z,0.90
2022-07-27T19:45:43.238Z,1.20
2022-07-27T19:48:11.752Z,1.23
2022-07-27T19:50:39.661Z,1.10
2022-07-27T19:53:09.169Z,0.90
2022-07-27T19:55:36.857Z,1.25
2022-07-27T19:58:04.652Z,1.00
2022-07-27T20:00:32.406Z,0.80
2022-07-27T20:03:01.202Z,1.02
2022-07-27T20:05:29.039Z,1.27
2022-07-27T20:07:56.760Z,1.10
2022-07-27T20:10:26.179Z,1.00
2022-07-27T20:12:53.837Z,1.13
2022-07-27T20:15:22.452Z,1.30
2022-07-27T20:17:50.626Z,1.27
2022-07-27T20:20:18.298Z,0.90
2022-07-27T20:22:46.050Z,1.02
2022-07-27T20:25:14.799Z,1.23
2022-07-27T20:27:43.881Z,1.10
2022-07-27T20:30:14.422Z,1.38
2022-07-27T20:32:42.044Z,0.98
2022-07-27T20:35:09.812Z,1.13
2022-07-27T20:37:38.020Z,1.15
2022-07-27T20:40:07.442Z,1.27
2022-07-27T20:42:35.261Z,1.10
2022-07-27T20:45:11.368Z,1.00
2022-07-27T20:47:39.454Z,1.20
2022-07-27T20:50:09.024Z,1.05
2022-07-27T20:52:36.950Z,1.10
2022-07-27T20:55:05.365Z,1.10
2022-07-27T20:57:32.956Z,2.40
2022-07-27T21:00:00.574Z,1.23
2022-07-27T21:02:29.590Z,1.20
2022-07-27T21:04:57.265Z,0.90
2022-07-27T21:07:26.669Z,1.23
2022-07-27T21:09:54.282Z,1.90
2022-07-27T21:12:21.894Z,1.05
2022-07-27T21:14:49.775Z,1.30
2022-07-27T21:17:17.469Z,1.00
2022-07-27T21:19:46.414Z,1.23
2022-07-27T21:22:14.077Z,0.88
2022-07-27T21:24:40.917Z,1.00
2022-07-27T21:27:08.960Z,1.00
2022-07-27T21:29:36.575Z,1.00
2022-07-27T21:32:04.442Z,1.10
2022-07-27T21:34:32.079Z,0.93
2022-07-27T21:37:01.026Z,1.20
2022-07-27T21:39:28.920Z,1.00
2022-07-27T21:42:01.714Z,1.20
2022-07-27T21:44:30.088Z,0.80
2022-07-27T21:46:57.939Z,1.10
2022-07-27T21:49:34.044Z,0.90
2022-07-27T21:52:03.824Z,1.08
2022-07-27T21:54:31.457Z,0.98
2022-07-27T21:56:59.146Z,0.90
2022-07-27T21:59:26.755Z,0.80
2022-07-27T22:01:54.402Z,0.98
2022-07-27T22:04:22.089Z,0.73
2022-07-27T22:06:49.731Z,0.85
2022-07-27T22:09:20.031Z,0.85
2022-07-27T22:11:47.769Z,1.08
2022-07-27T22:14:16.102Z,0.93
2022-07-27T22:16:44.248Z,0.88
2022-07-27T22:19:11.950Z,0.93
2022-07-27T22:21:39.557Z,0.70
2022-07-27T22:24:07.694Z,0.90
2022-07-27T22:26:36.671Z,0.90
2022-07-27T22:29:04.739Z,0.90
2022-07-27T22:31:32.468Z,0.70
2022-07-27T22:34:00.122Z,1.25
2022-07-27T22:36:27.721Z,0.80
2022-07-27T22:38:55.694Z,0.60
2022-07-27T22:41:23.374Z,1.20
2022-07-27T22:43:53.224Z,0.57
2022-07-27T22:46:25.309Z,0.60
2022-07-27T22:48:53.515Z,0.60
2022-07-27T22:51:21.710Z,0.60
2022-07-27T22:53:49.315Z,0.60
2022-07-27T22:56:17.054Z,0.77
2022-07-27T22:58:44.624Z,0.60
2022-07-27T23:01:46.546Z,0.88
2022-07-27T23:04:01.140Z,0.52
2022-07-27T23:06:28.748Z,0.70
2022-07-27T23:08:56.648Z,0.68
2022-07-27T23:11:24.292Z,0.73
2022-07-27T23:13:51.911Z,0.70
2022-07-27T23:16:20.974Z,0.63
2022-07-27T23:18:48.647Z,0.80
2022-07-27T23:21:16.338Z,0.60
2022-07-27T23:23:53.706Z,0.63
2022-07-27T23:26:22.955Z,0.93
2022-07-27T23:28:54.157Z,0.70
2022-07-27T23:31:23.787Z,0.70
2022-07-27T23:33:51.394Z,0.50
2022-07-27T23:36:19.052Z,0.50
2022-07-27T23:38:46.800Z,0.50
2022-07-27T23:41:15.477Z,0.60
2022-07-27T23:43:44.776Z,0.80
2022-07-27T23:46:12.576Z,0.80
2022-07-27T23:48:41.609Z,0.60
2022-07-27T23:51:09.686Z,0.68
2022-07-27T23:53:37.295Z,0.70
2022-07-27T23:56:05.195Z,0.52
2022-07-27T23:58:32.790Z,0.73
